createdAt,value
2022-12-14T00:02:04.862Z,26.56
2022-12-14T00:04:32.237Z,26.64
2022-12-14T00:06:59.345Z,27.81
2022-12-14T00:09:26.378Z,27.49
2022-12-14T00:11:59.415Z,27.01
2022-12-14T00:14:26.228Z,27.66
2022-12-14T00:16:53.032Z,28.38
2022-12-14T00:19:22.804Z,28.24
2022-12-14T00:21:49.925Z,28.53
2022-12-14T00:24:16.979Z,29.30
2022-12-14T00:26:54.977Z,28.68
2022-12-14T00:29:27.809Z,28.87
2022-12-14T00:32:00.702Z,28.58
2022-12-14T00:34:30.420Z,29.40
2022-12-14T00:36:57.592Z,28.43
2022-12-14T00:39:27.254Z,28.74
2022-12-14T00:42:19.433Z,28.82
2022-12-14T00:44:48.434Z,28.57
2022-12-14T00:47:22.581Z,28.56
2022-12-14T00:49:50.048Z,30.50
2022-12-14T00:52:20.881Z,29.43
2022-12-14T00:54:48.026Z,29.52
2022-12-14T00:57:14.984Z,28.85
2022-12-14T00:59:47.720Z,29.60
2022-12-14T01:02:14.879Z,29.46
2022-12-14T01:04:41.894Z,30.04
2022-12-14T01:07:10.921Z,29.27
2022-12-14T01:09:38.013Z,29.94
2022-12-14T01:12:06.061Z,29.98
2022-12-14T01:14:33.594Z,30.24
2022-12-14T01:17:00.648Z,30.08
2022-12-14T01:19:33.363Z,28.94
2022-12-14T01:22:00.622Z,29.24
2022-12-14T01:24:27.564Z,28.97
2022-12-14T01:26:57.103Z,29.15
2022-12-14T01:29:26.567Z,30.67
2022-12-14T01:31:56.481Z,30.18
2022-12-14T01:34:23.425Z,30.87
2022-12-14T01:36:50.372Z,30.71
2022-12-14T01:39:17.397Z,31.27
2022-12-14T01:42:03.929Z,31.50
2022-12-14T01:44:42.792Z,31.82
2022-12-14T01:47:28.300Z,30.75
2022-12-14T01:50:05.578Z,29.72
2022-12-14T01:52:41.906Z,29.42
2022-12-14T01:55:34.156Z,29.17
2022-12-14T01:58:20.834Z,29.56
2022-12-14T02:00:49.261Z,29.59
2022-12-14T02:03:26.114Z,29.75
2022-12-14T02:06:08.144Z,29.37
2022-12-14T02:08:38.452Z,30.54
2022-12-14T02:11:26.447Z,30.57
2022-12-14T02:13:53.556Z,30.72
2022-12-14T02:16:20.721Z,31.18
2022-12-14T02:18:47.921Z,30.06
2022-12-14T02:21:27.293Z,29.85
2022-12-14T02:24:32.224Z,30.19
2022-12-14T02:27:15.916Z,30.30
2022-12-14T02:30:04.877Z,29.91
2022-12-14T02:32:41.792Z,30.78
2022-12-14T02:35:21.188Z,30.66
2022-12-14T02:37:59.766Z,31.53
2022-12-14T02:40:43.900Z,31.56
2022-12-14T02:43:33.697Z,31.74
2022-12-14T02:46:20.644Z,32.25
2022-12-14T02:49:06.315Z,30.63
2022-12-14T02:51:51.287Z,31.45
2022-12-14T02:54:24.254Z,32.40
2022-12-14T02:56:53.532Z,32.66
2022-12-14T02:59:20.424Z,33.83
2022-12-14T03:01:47.887Z,34.06
2022-12-14T03:04:15.042Z,34.16
2022-12-14T03:06:56.235Z,32.74
2022-12-14T03:09:23.713Z,33.17
2022-12-14T03:11:59.838Z,32.98
2022-12-14T03:14:55.705Z,33.13
2022-12-14T03:17:24.943Z,33.11
2022-12-14T03:20:12.962Z,31.61
2022-12-14T03:23:01.573Z,30.72
2022-12-14T03:25:35.459Z,30.87
2022-12-14T03:28:24.205Z,31.23
2022-12-14T03:31:00.621Z,30.17
2022-12-14T03:33:29.420Z,30.18
2022-12-14T03:36:52.733Z,30.28
2022-12-14T03:39:23.785Z,31.14
2022-12-14T03:41:57.919Z,31.20
2022-12-14T03:44:48.952Z,30.66
2022-12-14T03:47:51.032Z,30.06
2022-12-14T03:50:20.344Z,29.51
2022-12-14T03:53:26.469Z,31.17
2022-12-14T03:56:07.457Z,30.37
2022-12-14T03:59:06.907Z,31.06
2022-12-14T04:01:37.068Z,28.94
2022-12-14T04:04:26.571Z,27.53
2022-12-14T04:06:59.506Z,26.99
2022-12-14T04:09:36.542Z,26.19
2022-12-14T04:12:06.592Z,26.18
2022-12-14T04:15:18.385Z,26.25
2022-12-14T04:18:06.568Z,25.54
2022-12-14T04:20:39.565Z,24.34
2022-12-14T04:23:18.274Z,24.54
2022-12-14T04:25:47.914Z,24.98
2022-12-14T04:28:23.764Z,25.49
2022-12-14T04:30:59.046Z,26.29
2022-12-14T04:33:27.731Z,24.47
2022-12-14T04:35:57.432Z,24.92
2022-12-14T04:38:27.989Z,25.12
2022-12-14T04:40:56.556Z,24.83
2022-12-14T04:43:32.021Z,24.98
2022-12-14T04:46:00.996Z,24.27
2022-12-14T04:48:31.008Z,23.75
2022-12-14T04:51:13.608Z,23.31
2022-12-14T04:53:40.425Z,23.07
2022-12-14T04:56:20.717Z,22.82
2022-12-14T04:58:47.916Z,24.52
2022-12-14T05:01:28.070Z,23.86
2022-12-14T05:04:15.290Z,23.76
2022-12-14T05:06:55.303Z,23.38
2022-12-14T05:09:29.213Z,23.03
2022-12-14T05:12:27.503Z,22.74
2022-12-14T05:15:05.185Z,22.82
2022-12-14T05:17:37.400Z,22.83
2022-12-14T05:20:07.084Z,21.92
2022-12-14T05:22:34.759Z,21.35
2022-12-14T05:25:05.065Z,21.41
2022-12-14T05:27:38.052Z,22.02
2022-12-14T05:30:08.424Z,21.19
2022-12-14T05:32:35.255Z,20.43
2022-12-14T05:35:05.132Z,18.99
2022-12-14T05:37:31.837Z,19.29
2022-12-14T05:39:59.796Z,19.05
2022-12-14T05:42:26.494Z,19.30
2022-12-14T05:44:54.614Z,18.42
2022-12-14T05:47:22.879Z,17.12
2022-12-14T05:49:51.944Z,16.72
2022-12-14T05:52:18.730Z,17.27
2022-12-14T05:54:48.254Z,16.54
2022-12-14T05:57:15.201Z,16.57
2022-12-14T05:59:47.950Z,16.66
2022-12-14T06:02:18.366Z,16.50
2022-12-14T06:04:51.391Z,16.69
2022-12-14T06:07:27.663Z,17.08
2022-12-14T06:09:56.454Z,16.49
2022-12-14T06:12:23.506Z,16.32
2022-12-14T06:14:50.489Z,16.87
2022-12-14T06:17:19.722Z,16.86
2022-12-14T06:19:50.395Z,16.23
2022-12-14T06:22:18.326Z,16.71
2022-12-14T06:24:45.269Z,16.64
2022-12-14T06:27:12.222Z,17.41
2022-12-14T06:29:42.011Z,18.02
2022-12-14T06:32:09.173Z,17.90
2022-12-14T06:34:41.639Z,18.22
2022-12-14T06:37:09.427Z,17.87
2022-12-14T06:39:42.360Z,17.24
2022-12-14T06:42:13.428Z,17.37
2022-12-14T06:44:40.384Z,17.28
2022-12-14T06:47:13.181Z,17.50
2022-12-14T06:49:47.011Z,17.74
2022-12-14T06:52:15.803Z,17.15
2022-12-14T06:54:46.611Z,17.70
2022-12-14T06:57:13.814Z,17.31
2022-12-14T06:59:40.989Z,17.15
2022-12-14T07:02:14.140Z,17.50
2022-12-14T07:04:42.145Z,17.24
2022-12-14T07:07:14.951Z,17.47
2022-12-14T07:09:46.989Z,18.41
2022-12-14T07:12:14.336Z,18.36
2022-12-14T07:14:41.389Z,17.58
2022-12-14T07:17:08.849Z,17.49
2022-12-14T07:19:43.122Z,18.98
2022-12-14T07:22:10.564Z,18.82
2022-12-14T07:24:37.717Z,17.90
2022-12-14T07:27:04.594Z,18.98
2022-12-14T07:29:36.181Z,19.22
2022-12-14T07:32:04.044Z,19.10
2022-12-14T07:34:55.578Z,19.77
2022-12-14T07:37:25.162Z,19.73
2022-12-14T07:40:05.595Z,20.07
2022-12-14T07:42:57.534Z,19.87
2022-12-14T07:45:24.728Z,19.81
2022-12-14T07:47:59.674Z,20.46
2022-12-14T07:50:26.730Z,20.60
2022-12-14T07:52:54.729Z,20.34
2022-12-14T07:55:24.277Z,19.29
2022-12-14T07:57:56.557Z,19.15
2022-12-14T08:00:25.513Z,18.62
2022-12-14T08:02:55.304Z,18.25
2022-12-14T08:05:29.268Z,18.54
2022-12-14T08:07:56.068Z,18.18
2022-12-14T08:10:22.936Z,18.88
2022-12-14T08:12:50.520Z,18.43
2022-12-14T08:15:17.729Z,18.68
2022-12-14T08:17:44.450Z,19.56
2022-12-14T08:20:11.273Z,20.52
2022-12-14T08:22:47.014Z,19.26
2022-12-14T08:25:14.852Z,19.00
2022-12-14T08:27:41.917Z,19.66
2022-12-14T08:30:09.405Z,20.06
2022-12-14T08:32:39.191Z,19.07
2022-12-14T08:35:06.518Z,19.41
2022-12-14T08:37:33.491Z,19.98
2022-12-14T08:40:00.212Z,19.31
2022-12-14T08:42:30.334Z,18.72
2022-12-14T08:44:57.118Z,19.29
2022-12-14T08:47:27.542Z,19.09
2022-12-14T08:49:54.730Z,19.23
2022-12-14T08:52:21.498Z,19.64
2022-12-14T08:54:48.437Z,20.55
2022-12-14T08:57:20.602Z,20.23
2022-12-14T09:00:03.185Z,20.24
2022-12-14T09:02:30.365Z,19.46
2022-12-14T09:04:58.780Z,20.03
2022-12-14T09:07:27.569Z,19.74
2022-12-14T09:10:04.369Z,19.89
2022-12-14T09:12:31.645Z,19.40
2022-12-14T09:14:58.884Z,19.42
2022-12-14T09:17:25.729Z,18.84
2022-12-14T09:19:53.089Z,19.07
2022-12-14T09:22:21.736Z,19.02
2022-12-14T09:24:51.562Z,18.84
2022-12-14T09:27:19.664Z,18.99
2022-12-14T09:29:47.989Z,18.86
2022-12-14T09:32:16.038Z,19.32
2022-12-14T09:34:43.215Z,19.51
2022-12-14T09:37:10.450Z,19.05
2022-12-14T09:39:39.393Z,19.81
2022-12-14T09:42:50.523Z,20.85
2022-12-14T09:45:33.587Z,19.10
2022-12-14T09:48:08.216Z,19.58
2022-12-14T09:50:35.348Z,21.11
2022-12-14T09:53:05.611Z,20.61
2022-12-14T09:55:38.633Z,19.31
2022-12-14T09:58:30.868Z,18.66
2022-12-14T10:01:17.338Z,18.53
2022-12-14T10:04:08.715Z,19.46
2022-12-14T10:07:02.533Z,19.10
2022-12-14T10:10:02.191Z,18.85
2022-12-14T10:13:10.249Z,19.85
2022-12-14T10:15:46.574Z,19.16
2022-12-14T10:18:58.759Z,17.15
2022-12-14T10:21:27.749Z,15.97
2022-12-14T10:24:09.609Z,17.09
2022-12-14T10:26:38.449Z,16.28
2022-12-14T10:29:26.704Z,16.24
2022-12-14T10:32:31.644Z,16.79
2022-12-14T10:34:59.241Z,17.26
2022-12-14T10:37:29.186Z,17.01
2022-12-14T10:40:16.396Z,22.40
2022-12-14T10:43:08.516Z,25.72
2022-12-14T10:46:14.846Z,20.61
2022-12-14T10:49:16.892Z,16.68
2022-12-14T10:51:46.401Z,16.89
2022-12-14T10:54:34.071Z,17.33
2022-12-14T10:57:01.166Z,16.03
2022-12-14T10:59:38.584Z,16.54
2022-12-14T11:02:27.809Z,15.68
2022-12-14T11:05:02.196Z,15.62
2022-12-14T11:07:35.950Z,15.57
2022-12-14T11:10:44.473Z,15.77
2022-12-14T11:13:22.452Z,15.71
2022-12-14T11:16:18.831Z,15.45
2022-12-14T11:19:18.748Z,16.26
2022-12-14T11:25:38.276Z,15.41
2022-12-14T11:28:32.765Z,15.81
2022-12-14T11:31:09.217Z,15.26
2022-12-14T11:33:41.251Z,15.63
2022-12-14T11:39:24.567Z,17.42
2022-12-14T11:42:01.224Z,17.17
2022-12-14T11:44:35.416Z,16.48
2022-12-14T11:47:11.940Z,17.09
2022-12-14T11:49:55.061Z,17.78
2022-12-14T11:52:37.502Z,17.14
2022-12-14T11:55:14.888Z,17.33
2022-12-14T11:57:53.006Z,19.10
2022-12-14T12:00:47.250Z,18.26
2022-12-14T12:03:31.598Z,19.66
2022-12-14T12:06:12.758Z,24.74
2022-12-14T12:08:40.801Z,22.12
2022-12-14T12:11:21.331Z,17.08
2022-12-14T12:13:51.685Z,15.87
2022-12-14T12:16:23.604Z,17.91
2022-12-14T12:19:26.028Z,16.83
2022-12-14T12:21:59.989Z,15.85
2022-12-14T12:25:00.957Z,15.80
2022-12-14T12:27:27.679Z,14.92
2022-12-14T12:30:15.044Z,15.04
2022-12-14T12:32:50.396Z,23.65
2022-12-14T12:35:21.390Z,19.94
2022-12-14T12:37:55.236Z,16.04
2022-12-14T12:40:33.323Z,21.77
2022-12-14T12:43:38.467Z,19.59
2022-12-14T12:46:29.294Z,18.77
2022-12-14T12:49:12.623Z,14.72
2022-12-14T12:51:58.365Z,14.22
2022-12-14T12:54:57.249Z,14.82
2022-12-14T12:57:45.193Z,14.92
2022-12-14T13:00:20.325Z,14.81
2022-12-14T13:03:01.298Z,14.93
2022-12-14T13:05:48.731Z,14.99
2022-12-14T13:08:34.840Z,16.05
2022-12-14T13:11:29.089Z,16.50
2022-12-14T13:14:23.179Z,16.38
2022-12-14T13:16:55.929Z,16.99
2022-12-14T13:19:54.462Z,16.68
2022-12-14T13:22:34.020Z,16.48
2022-12-14T13:25:10.928Z,16.77
2022-12-14T13:28:15.004Z,17.21
2022-12-14T13:30:42.080Z,16.89
2022-12-14T13:33:36.721Z,16.64
2022-12-14T13:36:32.072Z,17.07
2022-12-14T13:39:18.765Z,17.36
2022-12-14T13:42:08.339Z,16.40
2022-12-14T13:45:14.872Z,16.78
2022-12-14T13:47:44.081Z,17.64
2022-12-14T13:50:41.907Z,17.54
2022-12-14T13:53:27.587Z,17.06
2022-12-14T13:56:00.665Z,17.08
2022-12-14T13:58:43.287Z,17.00
2022-12-14T14:01:17.273Z,18.54
2022-12-14T14:03:54.077Z,17.38
2022-12-14T14:06:34.931Z,15.85
2022-12-14T14:09:41.325Z,15.73
2022-12-14T14:12:33.993Z,15.56
2022-12-14T14:15:26.377Z,15.43
2022-12-14T14:17:54.302Z,15.96
2022-12-14T14:20:46.839Z,15.65
2022-12-14T14:23:30.611Z,16.47
2022-12-14T14:26:18.517Z,16.58
2022-12-14T14:29:05.152Z,16.28
2022-12-14T14:32:05.944Z,16.13
2022-12-14T14:35:08.396Z,16.08
2022-12-14T14:37:50.481Z,16.23
2022-12-14T14:41:14.087Z,15.34
2022-12-14T14:43:29.292Z,14.79
2022-12-14T14:46:02.685Z,15.38
2022-12-14T14:48:35.311Z,15.22
2022-12-14T14:51:18.870Z,14.72
2022-12-14T14:53:50.546Z,15.57
2022-12-14T14:56:31.336Z,16.22
2022-12-14T14:59:21.696Z,16.00
2022-12-14T15:01:56.564Z,16.29
2022-12-14T15:04:51.640Z,16.23
2022-12-14T15:07:24.237Z,15.25
2022-12-14T15:10:00.607Z,15.22
2022-12-14T15:12:45.425Z,14.93
2022-12-14T15:15:28.866Z,14.89
2022-12-14T15:18:39.799Z,14.75
2022-12-14T15:21:18.668Z,13.96
2022-12-14T15:23:49.436Z,14.94
2022-12-14T15:26:33.052Z,14.22
2022-12-14T15:29:05.990Z,14.03
2022-12-14T15:31:38.455Z,15.05
2022-12-14T15:34:05.669Z,14.46
2022-12-14T15:36:35.176Z,13.75
2022-12-14T15:39:02.183Z,13.53
2022-12-14T15:41:30.961Z,13.37
2022-12-14T15:44:00.280Z,12.95
2022-12-14T15:46:35.054Z,13.21
2022-12-14T15:49:22.073Z,13.84
2022-12-14T15:51:54.816Z,14.19
2022-12-14T15:54:23.780Z,13.59
2022-12-14T15:56:53.854Z,15.70
2022-12-14T15:59:22.274Z,13.12
2022-12-14T16:01:55.037Z,13.98
2022-12-14T16:04:25.654Z,19.46
2022-12-14T16:07:09.540Z,17.68
2022-12-14T16:10:14.963Z,27.16
2022-12-14T16:12:48.939Z,21.57
2022-12-14T16:15:27.230Z,17.79
2022-12-14T16:18:01.688Z,29.94
2022-12-14T16:20:31.972Z,13.75
2022-12-14T16:23:13.930Z,20.58
2022-12-14T16:26:44.588Z,15.12
2022-12-14T16:29:33.582Z,15.90
2022-12-14T16:32:07.175Z,20.84
2022-12-14T16:34:36.219Z,17.59
2022-12-14T16:37:32.516Z,15.79
2022-12-14T16:40:01.168Z,15.21
2022-12-14T16:42:53.477Z,14.61
2022-12-14T16:45:46.165Z,15.17
2022-12-14T16:48:23.735Z,15.65
2022-12-14T16:51:02.962Z,17.05
2022-12-14T16:53:35.124Z,17.01
2022-12-14T16:56:18.120Z,17.09
2022-12-14T16:59:01.367Z,17.16
2022-12-14T17:01:50.039Z,15.51
2022-12-14T17:04:18.502Z,15.32
2022-12-14T17:06:52.814Z,16.08
2022-12-14T17:09:26.664Z,15.81
2022-12-14T17:11:57.964Z,16.48
2022-12-14T17:14:27.687Z,19.47
2022-12-14T17:17:00.833Z,19.08
2022-12-14T17:19:35.424Z,19.04
2022-12-14T17:22:04.181Z,20.38
2022-12-14T17:24:31.829Z,23.82
2022-12-14T17:26:58.859Z,25.52
2022-12-14T17:29:31.566Z,25.28
2022-12-14T17:31:58.495Z,21.50
2022-12-14T17:34:26.287Z,20.37
2022-12-14T17:36:53.073Z,28.66
2022-12-14T17:39:20.187Z,31.50
2022-12-14T17:41:47.332Z,24.73
2022-12-14T17:44:15.565Z,23.72
2022-12-14T17:46:45.834Z,22.58
2022-12-14T17:52:01.876Z,20.70
2022-12-14T17:54:29.344Z,20.94
2022-12-14T17:56:56.302Z,20.03
2022-12-14T17:59:23.028Z,19.89
2022-12-14T18:01:49.960Z,43.88
2022-12-14T18:04:16.840Z,28.90
2022-12-14T18:06:53.209Z,18.39
2022-12-14T18:09:22.953Z,20.75
2022-12-14T18:12:21.568Z,19.38
2022-12-14T18:14:36.971Z,17.57
2022-12-14T18:17:09.801Z,20.76
2022-12-14T18:19:40.197Z,18.69
2022-12-14T18:22:07.860Z,19.05
2022-12-14T18:24:34.982Z,19.37
2022-12-14T18:27:01.756Z,21.08
2022-12-14T18:29:28.891Z,27.00
2022-12-14T18:31:55.764Z,33.56
2022-12-14T18:34:23.119Z,21.91
2022-12-14T18:36:50.230Z,19.46
2022-12-14T18:39:16.987Z,25.52
2022-12-14T18:41:44.617Z,22.31
2022-12-14T18:44:30.220Z,22.01
2022-12-14T18:47:14.907Z,31.43
2022-12-14T18:49:50.542Z,53.32
2022-12-14T18:52:25.060Z,50.98
2022-12-14T18:54:51.998Z,21.88
2022-12-14T18:57:18.820Z,18.18
2022-12-14T18:59:45.577Z,15.79
2022-12-14T19:02:15.558Z,15.98
2022-12-14T19:04:47.000Z,15.35
2022-12-14T19:07:14.147Z,18.68
2022-12-14T19:09:41.238Z,19.90
2022-12-14T19:12:11.036Z,14.82
2022-12-14T19:14:37.912Z,15.11
2022-12-14T19:17:05.271Z,14.81
2022-12-14T19:19:40.865Z,17.55
2022-12-14T19:22:13.181Z,27.85
2022-12-14T19:24:39.978Z,26.23
2022-12-14T19:27:07.141Z,19.96
2022-12-14T19:29:41.491Z,18.60
2022-12-14T19:32:11.544Z,18.57
2022-12-14T19:34:39.134Z,16.35
2022-12-14T19:37:07.672Z,17.20
2022-12-14T19:39:35.811Z,19.06
2022-12-14T19:42:03.666Z,20.28
2022-12-14T19:44:34.435Z,17.99
2022-12-14T19:47:01.338Z,23.59
2022-12-14T19:49:28.578Z,36.14
2022-12-14T19:51:56.152Z,33.07
2022-12-14T19:54:22.996Z,24.78
2022-12-14T19:56:50.932Z,19.90
2022-12-14T19:59:25.378Z,19.19
2022-12-14T20:01:53.946Z,18.62
2022-12-14T20:04:20.910Z,17.21
2022-12-14T20:06:47.983Z,18.63
2022-12-14T20:09:15.751Z,19.03
2022-12-14T20:11:43.567Z,23.12
2022-12-14T20:14:11.420Z,23.10
2022-12-14T20:16:38.767Z,22.05
2022-12-14T20:19:06.243Z,19.57
2022-12-14T20:21:33.495Z,20.74
2022-12-14T20:24:02.953Z,20.82
2022-12-14T20:26:30.045Z,18.22
2022-12-14T20:28:59.278Z,20.92
2022-12-14T20:31:26.130Z,20.96
2022-12-14T20:34:00.170Z,20.69
2022-12-14T20:36:28.823Z,22.83
2022-12-14T20:38:56.214Z,26.89
2022-12-14T20:41:24.729Z,24.86
2022-12-14T20:43:51.920Z,29.87
2022-12-14T20:46:31.082Z,25.72
2022-12-14T20:48:59.056Z,23.69
2022-12-14T20:51:26.636Z,26.08
2022-12-14T20:53:53.408Z,26.10
2022-12-14T20:56:20.565Z,23.69
2022-12-14T20:58:47.843Z,22.94
2022-12-14T21:01:16.968Z,22.87
2022-12-14T21:03:45.575Z,19.76
2022-12-14T21:06:13.873Z,21.46
2022-12-14T21:08:41.729Z,19.35
2022-12-14T21:11:10.804Z,18.63
2022-12-14T21:13:38.867Z,17.90
2022-12-14T21:16:12.832Z,18.91
2022-12-14T21:18:42.256Z,17.99
2022-12-14T21:21:11.105Z,20.94
2022-12-14T21:23:38.946Z,19.65
2022-12-14T21:26:07.517Z,18.66
2022-12-14T21:28:34.977Z,18.39
2022-12-14T21:31:08.702Z,17.77
2022-12-14T21:33:36.819Z,19.57
2022-12-14T21:36:12.107Z,17.92
2022-12-14T21:38:40.381Z,17.56
2022-12-14T21:41:13.525Z,17.94
2022-12-14T21:43:41.057Z,21.86
2022-12-14T21:46:08.368Z,19.18
2022-12-14T21:48:35.460Z,20.97
2022-12-14T21:51:25.693Z,18.81
2022-12-14T21:53:56.024Z,18.46
2022-12-14T21:56:24.620Z,19.28
2022-12-14T21:58:54.079Z,17.71
2022-12-14T22:01:21.220Z,17.70
2022-12-14T22:03:49.511Z,17.19
2022-12-14T22:06:18.091Z,17.79
2022-12-14T22:08:45.241Z,17.03
2022-12-14T22:11:12.886Z,17.56
2022-12-14T22:13:39.939Z,18.15
2022-12-14T22:16:07.380Z,17.11
2022-12-14T22:18:34.600Z,16.20
2022-12-14T22:21:05.035Z,16.52
2022-12-14T22:23:35.920Z,16.25
2022-12-14T22:26:08.322Z,15.56
2022-12-14T22:28:35.498Z,16.62
2022-12-14T22:31:03.349Z,16.37
2022-12-14T22:33:32.307Z,16.40
2022-12-14T22:38:42.511Z,16.27
2022-12-14T22:41:10.040Z,15.90
2022-12-14T22:43:37.738Z,16.07
2022-12-14T22:46:05.757Z,15.99
2022-12-14T22:48:33.661Z,16.59
2022-12-14T22:51:05.765Z,16.81
2022-12-14T22:53:38.933Z,17.20
2022-12-14T22:56:23.692Z,16.44
2022-12-14T22:59:17.697Z,16.69
2022-12-14T23:01:50.009Z,15.39
2022-12-14T23:06:59.845Z,14.71
2022-12-14T23:09:29.460Z,14.87
2022-12-14T23:11:58.984Z,14.60
2022-12-14T23:14:27.239Z,14.87
2022-12-14T23:17:03.972Z,15.29
2022-12-14T23:19:33.521Z,14.93
2022-12-14T23:22:01.349Z,14.69
2022-12-14T23:24:32.409Z,15.34
2022-12-14T23:27:13.152Z,15.67
2022-12-14T23:29:45.628Z,15.67
2022-12-14T23:32:16.708Z,15.46
2022-12-14T23:34:49.870Z,16.59
2022-12-14T23:40:16.358Z,17.04
2022-12-14T23:42:44.938Z,16.78
2022-12-14T23:45:21.516Z,17.33
2022-12-14T23:47:57.956Z,18.12
2022-12-14T23:50:26.300Z,18.46
2022-12-14T23:53:01.843Z,18.93
2022-12-14T23:55:29.457Z,19.71
2022-12-14T23:57:58.236Z,19.02
